CCGS Sir Wilfrid Laurier — CGJK — position and weather

sailwx.info

Track history (hours):
 
Tides and Currents Weather Stations Pressure Air Temp Water Temp Dewpoint Dewpoint Depression Visibility Wind Speed Wind Dir Waves Ship Positions

Oceanographic research ship CCGS Sir Wilfrid Laurier (Canada)

Detailed information on ship capabilities available from ARCUS's ALIAS (Arctic Logistics Information and Support) project.

Last reported at 2016-Dec-08 00:00 UTC. Time now 2016-Dec-08 06:01 UTC.
Position N 48°24' W 123°24'.

Length 83 m; beam 16.2 m; draft 6 m.

Type: SAR. MMSI: 316052000.

Wind from 030 at 10 knots

Barometer 1030.4 mb
Air temperature 2.0 ° C
Dewpoint -6.1 ° C

Date/timePositionNaut miles runAvg speedWind from/ knotsBaromVisibWave heightAir tempDewpointWater temp
2016-Dec-08 00:00N 48°24' W 123°24'0 0.0 030 / 101030.4 2.0-6.1
2016-Dec-07 18:00N 48°24' W 123°24'0 0.0 030 / 71032.1 2.0-5.6
2016-Dec-07 12:00N 48°24' W 123°24'0 0.0 020 / 151031.7 -0.0-8.0
2016-Dec-07 06:00N 48°24' W 123°24'0 0.0 030 / 111028.8 2.0-7.4
2016-Dec-07 01:00N 48°24' W 123°24'0 0.0 040 / 61026.0 3.7-5.9
2016-Dec-07 00:00N 48°24' W 123°24'0 0.0 020 / 71025.5 4.3-4.4
2016-Dec-06 23:00N 48°24' W 123°24'0 0.0 040 / 71024.7 4.4-5.4
2016-Dec-06 22:00N 48°24' W 123°24'0 0.0 030 / 71024.2 5.6-5.4
2016-Dec-06 21:00N 48°24' W 123°24'0 0.0 030 / 111023.9 5.4-5.9
2016-Dec-06 20:00N 48°24' W 123°24'0 0.0 040 / 121023.5 4.9-5.3
2016-Dec-06 19:00N 48°24' W 123°24'0 0.0 030 / 151023.2 4.7-5.1
2016-Dec-06 18:00N 48°24' W 123°24'0 0.0 030 / 131022.7 4.5-5.3
2016-Dec-06 17:00N 48°24' W 123°24'0 0.0 030 / 101021.7 4.1-4.1
2016-Dec-06 16:00N 48°24' W 123°24'0 0.0 360 / 81021.1 2.3 1.6
2016-Dec-06 15:00N 48°24' W 123°24'0 0.0 360 / 81020.6 2.7 1.5
2016-Dec-06 14:00N 48°24' W 123°24'0 0.0 360 / 101020.1 2.9 0.8
2016-Dec-06 13:00N 48°24' W 123°24'0 0.0 020 / 141019.3 4.2-1.9
2016-Dec-06 12:00N 48°24' W 123°24'0 0.0 030 / 131019.0 4.1-2.2
2016-Dec-06 11:00N 48°24' W 123°24'0 0.0 030 / 141018.6 4.1-2.0
2016-Dec-06 10:00N 48°24' W 123°24'0 0.0 020 / 111018.0 3.9 1.3
2016-Dec-06 09:00N 48°24' W 123°24'0 0.0 360 / 61017.9 2.4 2.3
2016-Dec-06 08:00N 48°24' W 123°24'0 0.0 360 / 71017.9 1.8 1.8
2016-Dec-06 07:00N 48°24' W 123°24'0 0.0 350 / 41017.7 1.8 1.7
2016-Dec-06 06:00N 48°24' W 123°24'0 0.0 350 / 51017.6 1.6 1.5
2016-Dec-06 05:00N 48°24' W 123°24'0 0.0 050 / 61017.0 3.0 2.8
2016-Dec-06 04:00N 48°24' W 123°24'0 0.0 310 / 71016.5 3.4 3.2
2016-Dec-06 03:00N 48°24' W 123°24'0 0.0 200 / 81016.4 3.4 3.3
2016-Dec-06 02:00N 48°24' W 123°24'0 0.0 350 / 21016.3 4.0 3.8
2016-Dec-06 01:00N 48°24' W 123°24'0 0.0 040 / 11016.3 3.6 3.4
2016-Dec-06 00:00N 48°24' W 123°24'0 0.0 350 / 41016.0 3.9 3.7
2016-Dec-05 23:00N 48°24' W 123°24'0 0.0 320 / 81016.2 4.4 3.3
2016-Dec-05 22:00N 48°24' W 123°24'0 0.0 320 / 71016.2 5.2 3.4
2016-Dec-05 21:00N 48°24' W 123°24'0 0.0 250 / 81016.4 6.6 1.9
2016-Dec-05 20:00N 48°24' W 123°24'0 0.0 270 / 71016.7 6.4 2.7
2016-Dec-05 19:00N 48°24' W 123°24'0 0.0 290 / 71016.8 5.6 3.3
2016-Dec-05 18:00N 48°24' W 123°24'1 2.2 260 / 101016.7 4.8 3.4
2016-Dec-05 17:25N 48°25' W 123°23'1 3.1
2016-Dec-05 17:00N 48°24' W 123°24'0 0.0 220 / 131016.4 4.1 3.9
2016-Dec-05 16:00N 48°24' W 123°24'0 0.0 240 / 81016.9 3.7 3.5
2016-Dec-05 15:00N 48°24' W 123°24'0 0.0 250 / 31016.8 3.5 3.3
2016-Dec-05 14:00N 48°24' W 123°24'0 0.0 120 / 61017.1 3.9 3.7
2016-Dec-05 13:00N 48°24' W 123°24'0 0.0 110 / 41017.8 3.1 3.0
2016-Dec-05 12:00N 48°24' W 123°24'0 0.0 360 / 51018.6 3.1 3.0
2016-Dec-05 11:00N 48°24' W 123°24'0 0.0 030 / 31019.3 3.7 3.6
2016-Dec-05 10:00N 48°24' W 123°24'0 0.0 090 / 31019.3 2.8 2.6
2016-Dec-05 09:00N 48°24' W 123°24'0 0.0 020 / 41019.7 3.4 3.3
2016-Dec-05 08:00N 48°24' W 123°24'0 0.0 230 / 121020.2 3.7 3.6
2016-Dec-05 07:00N 48°24' W 123°24'0 0.0 240 / 181020.0 5.3 3.9
2016-Dec-05 06:00N 48°24' W 123°24'0 0.0 230 / 181019.5 5.3 3.7
2016-Dec-05 05:00N 48°24' W 123°24'0 0.0 250 / 121019.4 5.4 4.0
2016-Dec-05 04:00N 48°24' W 123°24'0 0.0 240 / 171019.2 5.7 3.0
2016-Dec-05 03:00N 48°24' W 123°24'0 0.0 270 / 51019.2 5.6-0.1
2016-Dec-05 02:00N 48°24' W 123°24'0 0.0 290 / 51018.9 6.0-1.1
2016-Dec-05 01:00N 48°24' W 123°24'0 0.0 270 / 81018.4 6.6-0.4
2016-Dec-05 00:00N 48°24' W 123°24'0 0.0 270 / 91018.3 7.4 0.8
2016-Dec-04 23:00N 48°24' W 123°24'0 0.0 270 / 51018.2 7.9-1.9
2016-Dec-04 22:00N 48°24' W 123°24'0 0.0 270 / 81018.0 7.9-2.9
2016-Dec-04 21:00N 48°24' W 123°24'1 1.7 310 / 61017.8 8.6-2.8
2016-Dec-04 20:13N 48°25' W 123°23'1 6.0
2016-Dec-04 20:00N 48°24' W 123°24'1 2.7 260 / 101017.7 8.0-0.0
2016-Dec-04 19:31N 48°25' W 123°23'1 2.5
2016-Dec-04 19:00N 48°24' W 123°24'0 0.0 250 / 131017.4 7.1 1.1
2016-Dec-04 18:00N 48°24' W 123°24'0 0.0 250 / 131017.1 6.8 0.2
2016-Dec-04 17:00N 48°24' W 123°24'0 0.0 270 / 71016.3 6.0 1.0
2016-Dec-04 16:00N 48°24' W 123°24'0 0.0 260 / 61016.0 4.9 2.6
2016-Dec-04 15:00N 48°24' W 123°24'0 0.0 360 / 51016.0 4.8 4.1
2016-Dec-04 14:00N 48°24' W 123°24'0 0.0 1016.0 5.4 3.1
2016-Dec-04 13:00N 48°24' W 123°24'0 0.0 010 / 81015.2 5.8 4.5
2016-Dec-04 12:00N 48°24' W 123°24'0 0.0 280 / 71015.8 5.8 4.6
2016-Dec-04 11:00N 48°24' W 123°24'0 0.0 260 / 61016.1 6.4 4.6
2016-Dec-04 10:00N 48°24' W 123°24'0 0.0 240 / 141016.2 6.3 5.7
2016-Dec-04 09:00N 48°24' W 123°24'0 0.0 240 / 151017.0 6.5 6.3
2016-Dec-04 08:00N 48°24' W 123°24'0 0.0 250 / 131017.6 6.8 6.4
2016-Dec-04 07:00N 48°24' W 123°24'0 0.0 250 / 171017.9 6.9 6.5
2016-Dec-04 06:00N 48°24' W 123°24'0 0.0 250 / 121018.4 7.3 7.1
2016-Dec-04 05:00N 48°24' W 123°24'0 0.0 260 / 141018.5 7.2 6.6
2016-Dec-04 04:00N 48°24' W 123°24'0 0.0 260 / 121018.8 7.7 7.1
2016-Dec-04 03:00N 48°24' W 123°24'0 0.0 230 / 91019.4 8.0 7.9
2016-Dec-04 02:00N 48°24' W 123°24'0 0.0 220 / 111019.7 8.4 8.2
2016-Dec-04 01:00N 48°24' W 123°24'1 2.7 250 / 111021.1 8.3 8.2
2016-Dec-04 00:31N 48°25' W 123°23'1 2.5
2016-Dec-04 00:00N 48°24' W 123°24'0 0.0 260 / 111021.7 8.8 8.6
2016-Dec-03 23:00N 48°24' W 123°24'0 0.0 230 / 141021.9 9.7 8.2
2016-Dec-03 22:00N 48°24' W 123°24'0 0.0 240 / 211022.7 9.4 7.3
2016-Dec-03 21:00N 48°24' W 123°24'0 0.0 240 / 231023.0 9.7 7.6
2016-Dec-03 20:00N 48°24' W 123°24'0 0.0 240 / 261023.7 9.6 7.3
2016-Dec-03 19:00N 48°24' W 123°24'0 0.0 230 / 141024.4 9.5 7.5
2016-Dec-03 18:00N 48°24' W 123°24'0 0.0 250 / 141024.0 8.9 7.4
2016-Dec-03 17:00N 48°24' W 123°24'0 0.0 240 / 131024.1 9.1 7.1
2016-Dec-03 16:00N 48°24' W 123°24'0 0.0 250 / 141024.0 8.6 7.8
2016-Dec-03 15:00N 48°24' W 123°24'0 0.0 260 / 81023.9 8.6 8.4
2016-Dec-03 14:00N 48°24' W 123°24'0 0.0 250 / 141023.4 8.5 8.3
2016-Dec-03 13:00N 48°24' W 123°24'0 0.0 250 / 81023.5 8.6 8.4
2016-Dec-03 12:00N 48°24' W 123°24'0 0.0 240 / 161023.3 8.6 8.5
2016-Dec-03 11:00N 48°24' W 123°24'0 0.0 250 / 191022.5 8.4 8.2
2016-Dec-03 10:00N 48°24' W 123°24'0 0.0 250 / 211022.2 8.9 8.6
2016-Dec-03 09:00N 48°24' W 123°24'0 0.0 240 / 181022.1 8.8 8.6
2016-Dec-03 08:00N 48°24' W 123°24'0 0.0 250 / 231021.0 9.2 8.3
2016-Dec-03 07:00N 48°24' W 123°24'0 0.0 250 / 241020.3 9.4 7.8
2016-Dec-03 06:00N 48°24' W 123°24'0 0.0 260 / 121020.3 9.0 8.8
2016-Dec-03 05:00N 48°24' W 123°24'0 0.0 250 / 161019.7 9.6 8.4
2016-Dec-03 04:00N 48°24' W 123°24'0 0.0 250 / 151019.2 10.1 8.8
2016-Dec-03 03:00N 48°24' W 123°24'0 0.0 260 / 121018.6 10.4 9.1
2016-Dec-03 02:00N 48°24' W 123°24'0 0.0 260 / 161017.3 10.8 9.6
2016-Dec-03 01:00N 48°24' W 123°24'0 0.0 260 / 121017.3 10.4 9.5
2016-Dec-03 00:00N 48°24' W 123°24'0 0.0 250 / 131017.1 10.810.5
2016-Dec-02 23:00N 48°24' W 123°24'0 0.0 170 / 31017.4 8.6 8.5
2016-Dec-02 22:00N 48°24' W 123°24'0 0.0 210 / 11016.6 9.6 9.1
2016-Dec-02 21:00N 48°24' W 123°24'0 0.0 110 / 31017.5 9.5 9.1
2016-Dec-02 20:00N 48°24' W 123°24'0 0.0 130 / 31018.5 9.2 8.5
2016-Dec-02 19:00N 48°24' W 123°24'0 0.0 110 / 41019.7 8.6 8.2
2016-Dec-02 18:00N 48°24' W 123°24'0 0.0 360 / 31020.3 9.2 9.1
2016-Dec-02 17:00N 48°24' W 123°24'0 0.0 090 / 41021.4 8.1 8.0
2016-Dec-02 16:00N 48°24' W 123°24'0 0.0 010 / 11022.7 9.0 8.9
2016-Dec-02 15:00N 48°24' W 123°24'0 0.0 100 / 41023.4 8.2 8.2
2016-Dec-02 14:00N 48°24' W 123°24'0 0.0 100 / 21023.6 8.2 8.1
2016-Dec-02 13:00N 48°24' W 123°24'0 0.0 100 / 51023.3 7.9 7.8
2016-Dec-02 12:00N 48°24' W 123°24'0 0.0 120 / 61024.1 8.0 7.9
2016-Dec-02 11:00N 48°24' W 123°24'0 0.0 110 / 71024.7 7.9 7.8
2016-Dec-02 10:00N 48°24' W 123°24'1 1.6 110 / 71025.1 7.8 7.7
2016-Dec-02 09:10N 48°25' W 123°23'1 7.8
2016-Dec-02 09:00N 48°24' W 123°24'1 1.8 120 / 71025.3 8.0 7.8
2016-Dec-02 08:16N 48°25' W 123°23'1 4.9
2016-Dec-02 08:00N 48°24' W 123°24'0 0.0 110 / 91025.6 7.9 7.8
2016-Dec-02 07:00N 48°24' W 123°24'1 1.6 110 / 81026.0 7.6 7.5
2016-Dec-02 06:10N 48°25' W 123°23'1 7.8
2016-Dec-02 06:00N 48°24' W 123°24'1 2.5 110 / 81025.7 7.6 7.5
2016-Dec-02 05:28N 48°25' W 123°23'1 2.8
2016-Dec-02 05:00N 48°24' W 123°24'1 2.5 110 / 61025.9 7.9 7.0
2016-Dec-02 04:28N 48°25' W 123°23'1 2.8
2016-Dec-02 04:00N 48°24' W 123°24'0 0.0 110 / 81026.2 7.9 6.6
2016-Dec-02 03:00N 48°24' W 123°24'0 0.0 110 / 61026.0 7.9 7.7
2016-Dec-02 02:00N 48°24' W 123°24'0 0.0 110 / 61026.2 8.2 7.2
2016-Dec-02 01:00N 48°24' W 123°24'0 0.0 100 / 51025.6 7.8 7.4
2016-Dec-02 00:00N 48°24' W 123°24'0 0.0 110 / 41025.5 8.0 7.8
2016-Dec-01 23:00N 48°24' W 123°24'0 0.0 140 / 21025.4 8.1 8.0
2016-Dec-01 22:00N 48°24' W 123°24'0 0.0 100 / 11025.1 7.7 7.6
2016-Dec-01 21:00N 48°24' W 123°24'0 0.0 040 / 11025.0 8.1 8.0
2016-Dec-01 20:00N 48°24' W 123°24'0 0.0 010 / 21024.8 7.2 7.0
2016-Dec-01 19:00N 48°24' W 123°24'0 0.0 360 / 41024.9 5.9 5.8
2016-Dec-01 18:00N 48°24' W 123°24'0 0.0 010 / 41024.4 5.2 5.1
2016-Dec-01 17:00N 48°24' W 123°24'0 0.0 010 / 31024.0 4.4 4.3
2016-Dec-01 16:00N 48°24' W 123°24'0 0.0 020 / 31023.6 2.4 2.3
2016-Dec-01 15:00N 48°24' W 123°24'0 0.0 030 / 41023.1 3.1 3.0
2016-Dec-01 14:00N 48°24' W 123°24'0 0.0 010 / 21022.3 2.6 2.4
2016-Dec-01 13:00N 48°24' W 123°24'0 0.0 010 / 31022.4 3.6 3.4
2016-Dec-01 12:00N 48°24' W 123°24'0 0.0 010 / 31022.3 3.2 3.1
2016-Dec-01 11:00N 48°24' W 123°24'0 0.0 010 / 41022.1 4.1 3.9
2016-Dec-01 10:00N 48°24' W 123°24'0 0.0 1021.7 4.8 4.6
2016-Dec-01 09:00N 48°24' W 123°24'0 0.0 020 / 21021.2 5.3 4.9
2016-Dec-01 08:00N 48°24' W 123°24'0 0.0 260 / 41020.6 8.4 3.5
2016-Dec-01 07:00N 48°24' W 123°24'0 0.0 330 / 41020.0 8.5 3.9
2016-Dec-01 06:00N 48°24' W 123°24'0 0.0 010 / 31019.4 9.0 4.1
2016-Dec-01 05:00N 48°24' W 123°24'0 0.0 280 / 41019.0 9.1 4.4
2016-Dec-01 04:00N 48°24' W 123°24'0 0.0 250 / 141018.2 9.8 6.1
2016-Dec-01 03:00N 48°24' W 123°24'0 0.0 260 / 201017.5 9.9 6.0
2016-Dec-01 01:00N 48°24' W 123°24'0 0.0 260 / 141016.4 10.3 7.4
2016-Dec-01 00:00N 48°24' W 123°24'0 0.0 260 / 161015.5 10.6 7.2
2016-Nov-30 23:00N 48°24' W 123°24'0 0.0 250 / 101014.9 11.0 7.6
2016-Nov-30 22:00N 48°24' W 123°24'0 0.0 320 / 51014.4 10.2 7.4
2016-Nov-30 21:00N 48°24' W 123°24'0 0.0 280 / 81013.1 10.8 7.7
2016-Nov-30 20:00N 48°24' W 123°24'0 0.0 260 / 191011.8 10.8 7.0
2016-Nov-30 19:00N 48°24' W 123°24'0 0.0 260 / 261010.7 10.5 7.2
2016-Nov-30 18:00N 48°24' W 123°24'0 0.0 250 / 251009.6 9.8 8.7
2016-Nov-30 17:00N 48°24' W 123°24'0 0.0 240 / 251008.5 9.2 9.1
2016-Nov-30 16:00N 48°24' W 123°24'0 0.0 220 / 311007.6 9.0 8.9
2016-Nov-30 15:00N 48°24' W 123°24'0 0.0 200 / 221007.4 9.5 7.9
2016-Nov-30 14:00N 48°24' W 123°24'0 0.0 180 / 161007.9 9.0 8.6
2016-Nov-30 13:00N 48°24' W 123°24'0 0.0 190 / 101007.4 9.1 8.7
2016-Nov-30 12:00N 48°24' W 123°24'0 0.0 150 / 81007.4 8.8 8.1
2016-Nov-30 11:00N 48°24' W 123°24'0 0.0 130 / 41007.9 8.7 8.4
2016-Nov-30 10:00N 48°24' W 123°24'0 0.0 110 / 31007.5 8.8 8.0
2016-Nov-30 09:00N 48°24' W 123°24'0 0.0 010 / 31007.4 8.9 8.8
2016-Nov-30 08:00N 48°24' W 123°24'0 0.0 140 / 41008.5 8.8 8.6
2016-Nov-30 07:00N 48°24' W 123°24'0 0.0 020 / 31008.2 8.3 8.2
2016-Nov-30 06:00N 48°24' W 123°24'0 0.0 340 / 91009.4 8.3 8.2
2016-Nov-29 16:00N 48°24' W 123°24'0 0.0 020 / 41021.1 7.7 7.6
2016-Nov-29 15:00N 48°24' W 123°24'0 0.0 290 / 61021.1 7.2 7.1
2016-Nov-29 14:00N 48°24' W 123°24'0 0.0 010 / 41021.4 6.9 6.8
2016-Nov-29 13:00N 48°24' W 123°24'0 0.0 360 / 31021.2 7.1 7.0
2016-Nov-29 12:00N 48°24' W 123°24'0 0.0 030 / 41021.2 7.3 7.1
2016-Nov-29 11:00N 48°24' W 123°24'0 0.0 020 / 31021.4 7.0 6.9
2016-Nov-29 10:00N 48°24' W 123°24'0 0.0 010 / 31021.3 7.0 6.9
2016-Nov-29 09:00N 48°24' W 123°24'0 0.0 040 / 41020.8 7.0 6.9
2016-Nov-29 08:00N 48°24' W 123°24'0 0.0 360 / 31020.2 7.4 7.3
2016-Nov-29 07:00N 48°24' W 123°24'0 0.0 020 / 21020.0 7.2 7.1
2016-Nov-29 06:00N 48°24' W 123°24'0 0.0 360 / 31019.3 7.1 7.0
2016-Nov-29 05:00N 48°24' W 123°24'0 0.0 020 / 31019.0 7.2 7.1
2016-Nov-29 04:00N 48°24' W 123°24'0 0.0 350 / 41018.1 6.9 6.8
2016-Nov-29 03:00N 48°24' W 123°24'0 0.0 360 / 81017.6 7.9 7.7
2016-Nov-29 02:00N 48°24' W 123°24'0 0.0 010 / 41016.6 8.3 8.1
2016-Nov-29 01:00N 48°24' W 123°24'0 0.0 010 / 41015.9 9.2 7.2
2016-Nov-29 00:00N 48°24' W 123°24'0 0.0 020 / 41015.0 11.2 6.3
2016-Nov-28 23:00N 48°24' W 123°24'0 0.0 020 / 41013.9 12.5 6.3
2016-Nov-28 22:00N 48°24' W 123°24'0 0.0 030 / 41013.2 12.7 6.8
2016-Nov-28 21:00N 48°24' W 123°24'0 0.0 030 / 31012.8 13.4 7.6
2016-Nov-28 20:00N 48°24' W 123°24'0 0.0 060 / 31012.6 11.3 6.9
2016-Nov-28 19:00N 48°24' W 123°24'0 0.0 020 / 41012.2 9.7 7.0
2016-Nov-28 18:00N 48°24' W 123°24'0 0.0 020 / 31011.4 7.2 6.6
2016-Nov-28 17:00N 48°24' W 123°24'0 0.0 010 / 41010.4 5.7 5.6
2016-Nov-28 16:00N 48°24' W 123°24'0 0.0 010 / 51009.3 5.7 5.4
2016-Nov-28 15:00N 48°24' W 123°24'1 2.5 310 / 41008.3 8.6 6.2
2016-Nov-28 14:28N 48°25' W 123°23'1 2.8
2016-Nov-28 14:00N 48°24' W 123°24'0 0.0 250 / 151007.0 9.0 7.1
2016-Nov-28 13:00N 48°24' W 123°24'1 1.8 260 / 171006.2 9.2 6.9
2016-Nov-28 12:16N 48°25' W 123°23'1 4.9
2016-Nov-28 12:00N 48°24' W 123°24'1 1.4 260 / 131005.4 8.6 5.9
2016-Nov-28 11:04N 48°25' W 123°23'119.2
2016-Nov-28 11:00N 48°24' W 123°24'1 1.6 270 / 121004.6 8.0 5.0
2016-Nov-28 10:10N 48°25' W 123°23'1 7.8
2016-Nov-28 10:00N 48°24' W 123°24'1 2.1 270 / 81004.0 6.4 5.4
2016-Nov-28 09:22N 48°25' W 123°23'1 3.5
2016-Nov-28 09:00N 48°24' W 123°24'0 0.0 020 / 41003.0 5.8 5.6
2016-Nov-28 08:00N 48°24' W 123°24'0 0.0 020 / 11001.9 6.5 6.2
2016-Nov-28 07:00N 48°24' W 123°24'0 0.0 330 / 51000.3 7.4 5.8
2016-Nov-28 06:00N 48°24' W 123°24'0 0.0 270 / 12998.8 8.6 6.6
2016-Nov-28 05:00N 48°24' W 123°24'0 0.0 270 / 12997.3 9.1 7.1
2016-Nov-28 04:00N 48°24' W 123°24'0 0.0 250 / 15996.7 8.4 8.2
2016-Nov-28 03:00N 48°24' W 123°24'0 0.0 210 / 7997.1 7.8 7.6
2016-Nov-28 02:00N 48°24' W 123°24'0 0.0 210 / 6997.3 8.5 8.3
2016-Nov-28 01:00N 48°24' W 123°24'0 0.0 120 / 3997.4 7.7 7.6
2016-Nov-28 00:00N 48°24' W 123°24'   090 / 5999.8 7.6 7.4
Track history (hours):
 
Tides and Currents Weather Stations Pressure Air Temp Water Temp Dewpoint Dewpoint Depression Visibility Wind Speed Wind Dir Waves Ship Positions

Oceanographic research ship CCGS Sir Wilfrid Laurier (Canada)

Detailed information on ship capabilities available from ARCUS's ALIAS (Arctic Logistics Information and Support) project.

Last reported at 2016-Dec-08 00:00 UTC. Time now 2016-Dec-08 06:01 UTC.
Position N 48°24' W 123°24'.

Length 83 m; beam 16.2 m; draft 6 m.

Type: SAR. MMSI: 316052000.

Wind from 030 at 10 knots

Barometer 1030.4 mb
Air temperature 2.0 ° C
Dewpoint -6.1 ° C

Date/timePositionNaut miles runAvg speedWind from/ knotsBaromVisibWave heightAir tempDewpointWater temp
2016-Dec-08 00:00N 48°24' W 123°24'0 0.0 030 / 101030.4 2.0-6.1
2016-Dec-07 18:00N 48°24' W 123°24'0 0.0 030 / 71032.1 2.0-5.6
2016-Dec-07 12:00N 48°24' W 123°24'0 0.0 020 / 151031.7 -0.0-8.0
2016-Dec-07 06:00N 48°24' W 123°24'0 0.0 030 / 111028.8 2.0-7.4
2016-Dec-07 01:00N 48°24' W 123°24'0 0.0 040 / 61026.0 3.7-5.9
2016-Dec-07 00:00N 48°24' W 123°24'0 0.0 020 / 71025.5 4.3-4.4
2016-Dec-06 23:00N 48°24' W 123°24'0 0.0 040 / 71024.7 4.4-5.4
2016-Dec-06 22:00N 48°24' W 123°24'0 0.0 030 / 71024.2 5.6-5.4
2016-Dec-06 21:00N 48°24' W 123°24'0 0.0 030 / 111023.9 5.4-5.9
2016-Dec-06 20:00N 48°24' W 123°24'0 0.0 040 / 121023.5 4.9-5.3
2016-Dec-06 19:00N 48°24' W 123°24'0 0.0 030 / 151023.2 4.7-5.1
2016-Dec-06 18:00N 48°24' W 123°24'0 0.0 030 / 131022.7 4.5-5.3
2016-Dec-06 17:00N 48°24' W 123°24'0 0.0 030 / 101021.7 4.1-4.1
2016-Dec-06 16:00N 48°24' W 123°24'0 0.0 360 / 81021.1 2.3 1.6
2016-Dec-06 15:00N 48°24' W 123°24'0 0.0 360 / 81020.6 2.7 1.5
2016-Dec-06 14:00N 48°24' W 123°24'0 0.0 360 / 101020.1 2.9 0.8
2016-Dec-06 13:00N 48°24' W 123°24'0 0.0 020 / 141019.3 4.2-1.9
2016-Dec-06 12:00N 48°24' W 123°24'0 0.0 030 / 131019.0 4.1-2.2
2016-Dec-06 11:00N 48°24' W 123°24'0 0.0 030 / 141018.6 4.1-2.0
2016-Dec-06 10:00N 48°24' W 123°24'0 0.0 020 / 111018.0 3.9 1.3
2016-Dec-06 09:00N 48°24' W 123°24'0 0.0 360 / 61017.9 2.4 2.3
2016-Dec-06 08:00N 48°24' W 123°24'0 0.0 360 / 71017.9 1.8 1.8
2016-Dec-06 07:00N 48°24' W 123°24'0 0.0 350 / 41017.7 1.8 1.7
2016-Dec-06 06:00N 48°24' W 123°24'0 0.0 350 / 51017.6 1.6 1.5
2016-Dec-06 05:00N 48°24' W 123°24'0 0.0 050 / 61017.0 3.0 2.8
2016-Dec-06 04:00N 48°24' W 123°24'0 0.0 310 / 71016.5 3.4 3.2
2016-Dec-06 03:00N 48°24' W 123°24'0 0.0 200 / 81016.4 3.4 3.3
2016-Dec-06 02:00N 48°24' W 123°24'0 0.0 350 / 21016.3 4.0 3.8
2016-Dec-06 01:00N 48°24' W 123°24'0 0.0 040 / 11016.3 3.6 3.4
2016-Dec-06 00:00N 48°24' W 123°24'0 0.0 350 / 41016.0 3.9 3.7
2016-Dec-05 23:00N 48°24' W 123°24'0 0.0 320 / 81016.2 4.4 3.3
2016-Dec-05 22:00N 48°24' W 123°24'0 0.0 320 / 71016.2 5.2 3.4
2016-Dec-05 21:00N 48°24' W 123°24'0 0.0 250 / 81016.4 6.6 1.9
2016-Dec-05 20:00N 48°24' W 123°24'0 0.0 270 / 71016.7 6.4 2.7
2016-Dec-05 19:00N 48°24' W 123°24'0 0.0 290 / 71016.8 5.6 3.3
2016-Dec-05 18:00N 48°24' W 123°24'1 2.2 260 / 101016.7 4.8 3.4
2016-Dec-05 17:25N 48°25' W 123°23'1 3.1
2016-Dec-05 17:00N 48°24' W 123°24'0 0.0 220 / 131016.4 4.1 3.9
2016-Dec-05 16:00N 48°24' W 123°24'0 0.0 240 / 81016.9 3.7 3.5
2016-Dec-05 15:00N 48°24' W 123°24'0 0.0 250 / 31016.8 3.5 3.3
2016-Dec-05 14:00N 48°24' W 123°24'0 0.0 120 / 61017.1 3.9 3.7
2016-Dec-05 13:00N 48°24' W 123°24'0 0.0 110 / 41017.8 3.1 3.0
2016-Dec-05 12:00N 48°24' W 123°24'0 0.0 360 / 51018.6 3.1 3.0
2016-Dec-05 11:00N 48°24' W 123°24'0 0.0 030 / 31019.3 3.7 3.6
2016-Dec-05 10:00N 48°24' W 123°24'0 0.0 090 / 31019.3 2.8 2.6
2016-Dec-05 09:00N 48°24' W 123°24'0 0.0 020 / 41019.7 3.4 3.3
2016-Dec-05 08:00N 48°24' W 123°24'0 0.0 230 / 121020.2 3.7 3.6
2016-Dec-05 07:00N 48°24' W 123°24'0 0.0 240 / 181020.0 5.3 3.9
2016-Dec-05 06:00N 48°24' W 123°24'0 0.0 230 / 181019.5 5.3 3.7
2016-Dec-05 05:00N 48°24' W 123°24'0 0.0 250 / 121019.4 5.4 4.0
2016-Dec-05 04:00N 48°24' W 123°24'0 0.0 240 / 171019.2 5.7 3.0
2016-Dec-05 03:00N 48°24' W 123°24'0 0.0 270 / 51019.2 5.6-0.1
2016-Dec-05 02:00N 48°24' W 123°24'0 0.0 290 / 51018.9 6.0-1.1
2016-Dec-05 01:00N 48°24' W 123°24'0 0.0 270 / 81018.4 6.6-0.4
2016-Dec-05 00:00N 48°24' W 123°24'0 0.0 270 / 91018.3 7.4 0.8
2016-Dec-04 23:00N 48°24' W 123°24'0 0.0 270 / 51018.2 7.9-1.9
2016-Dec-04 22:00N 48°24' W 123°24'0 0.0 270 / 81018.0 7.9-2.9
2016-Dec-04 21:00N 48°24' W 123°24'1 1.7 310 / 61017.8 8.6-2.8
2016-Dec-04 20:13N 48°25' W 123°23'1 6.0
2016-Dec-04 20:00N 48°24' W 123°24'1 2.7 260 / 101017.7 8.0-0.0
2016-Dec-04 19:31N 48°25' W 123°23'1 2.5
2016-Dec-04 19:00N 48°24' W 123°24'0 0.0 250 / 131017.4 7.1 1.1
2016-Dec-04 18:00N 48°24' W 123°24'0 0.0 250 / 131017.1 6.8 0.2
2016-Dec-04 17:00N 48°24' W 123°24'0 0.0 270 / 71016.3 6.0 1.0
2016-Dec-04 16:00N 48°24' W 123°24'0 0.0 260 / 61016.0 4.9 2.6
2016-Dec-04 15:00N 48°24' W 123°24'0 0.0 360 / 51016.0 4.8 4.1
2016-Dec-04 14:00N 48°24' W 123°24'0 0.0 1016.0 5.4 3.1
2016-Dec-04 13:00N 48°24' W 123°24'0 0.0 010 / 81015.2 5.8 4.5
2016-Dec-04 12:00N 48°24' W 123°24'0 0.0 280 / 71015.8 5.8 4.6
2016-Dec-04 11:00N 48°24' W 123°24'0 0.0 260 / 61016.1 6.4 4.6
2016-Dec-04 10:00N 48°24' W 123°24'0 0.0 240 / 141016.2 6.3 5.7
2016-Dec-04 09:00N 48°24' W 123°24'0 0.0 240 / 151017.0 6.5 6.3
2016-Dec-04 08:00N 48°24' W 123°24'0 0.0 250 / 131017.6 6.8 6.4
2016-Dec-04 07:00N 48°24' W 123°24'0 0.0 250 / 171017.9 6.9 6.5
2016-Dec-04 06:00N 48°24' W 123°24'0 0.0 250 / 121018.4 7.3 7.1
2016-Dec-04 05:00N 48°24' W 123°24'0 0.0 260 / 141018.5 7.2 6.6
2016-Dec-04 04:00N 48°24' W 123°24'0 0.0 260 / 121018.8 7.7 7.1
2016-Dec-04 03:00N 48°24' W 123°24'0 0.0 230 / 91019.4 8.0 7.9
2016-Dec-04 02:00N 48°24' W 123°24'0 0.0 220 / 111019.7 8.4 8.2
2016-Dec-04 01:00N 48°24' W 123°24'1 2.7 250 / 111021.1 8.3 8.2
2016-Dec-04 00:31N 48°25' W 123°23'1 2.5
2016-Dec-04 00:00N 48°24' W 123°24'0 0.0 260 / 111021.7 8.8 8.6
2016-Dec-03 23:00N 48°24' W 123°24'0 0.0 230 / 141021.9 9.7 8.2
2016-Dec-03 22:00N 48°24' W 123°24'0 0.0 240 / 211022.7 9.4 7.3
2016-Dec-03 21:00N 48°24' W 123°24'0 0.0 240 / 231023.0 9.7 7.6
2016-Dec-03 20:00N 48°24' W 123°24'0 0.0 240 / 261023.7 9.6 7.3
2016-Dec-03 19:00N 48°24' W 123°24'0 0.0 230 / 141024.4 9.5 7.5
2016-Dec-03 18:00N 48°24' W 123°24'0 0.0 250 / 141024.0 8.9 7.4
2016-Dec-03 17:00N 48°24' W 123°24'0 0.0 240 / 131024.1 9.1 7.1
2016-Dec-03 16:00N 48°24' W 123°24'0 0.0 250 / 141024.0 8.6 7.8
2016-Dec-03 15:00N 48°24' W 123°24'0 0.0 260 / 81023.9 8.6 8.4
2016-Dec-03 14:00N 48°24' W 123°24'0 0.0 250 / 141023.4 8.5 8.3
2016-Dec-03 13:00N 48°24' W 123°24'0 0.0 250 / 81023.5 8.6 8.4
2016-Dec-03 12:00N 48°24' W 123°24'0 0.0 240 / 161023.3 8.6 8.5
2016-Dec-03 11:00N 48°24' W 123°24'0 0.0 250 / 191022.5 8.4 8.2
2016-Dec-03 10:00N 48°24' W 123°24'0 0.0 250 / 211022.2 8.9 8.6
2016-Dec-03 09:00N 48°24' W 123°24'0 0.0 240 / 181022.1 8.8 8.6
2016-Dec-03 08:00N 48°24' W 123°24'0 0.0 250 / 231021.0 9.2 8.3
2016-Dec-03 07:00N 48°24' W 123°24'0 0.0 250 / 241020.3 9.4 7.8
2016-Dec-03 06:00N 48°24' W 123°24'0 0.0 260 / 121020.3 9.0 8.8
2016-Dec-03 05:00N 48°24' W 123°24'0 0.0 250 / 161019.7 9.6 8.4
2016-Dec-03 04:00N 48°24' W 123°24'0 0.0 250 / 151019.2 10.1 8.8
2016-Dec-03 03:00N 48°24' W 123°24'0 0.0 260 / 121018.6 10.4 9.1
2016-Dec-03 02:00N 48°24' W 123°24'0 0.0 260 / 161017.3 10.8 9.6
2016-Dec-03 01:00N 48°24' W 123°24'0 0.0 260 / 121017.3 10.4 9.5
2016-Dec-03 00:00N 48°24' W 123°24'0 0.0 250 / 131017.1 10.810.5
2016-Dec-02 23:00N 48°24' W 123°24'0 0.0 170 / 31017.4 8.6 8.5
2016-Dec-02 22:00N 48°24' W 123°24'0 0.0 210 / 11016.6 9.6 9.1
2016-Dec-02 21:00N 48°24' W 123°24'0 0.0 110 / 31017.5 9.5 9.1
2016-Dec-02 20:00N 48°24' W 123°24'0 0.0 130 / 31018.5 9.2 8.5
2016-Dec-02 19:00N 48°24' W 123°24'0 0.0 110 / 41019.7 8.6 8.2
2016-Dec-02 18:00N 48°24' W 123°24'0 0.0 360 / 31020.3 9.2 9.1
2016-Dec-02 17:00N 48°24' W 123°24'0 0.0 090 / 41021.4 8.1 8.0
2016-Dec-02 16:00N 48°24' W 123°24'0 0.0 010 / 11022.7 9.0 8.9
2016-Dec-02 15:00N 48°24' W 123°24'0 0.0 100 / 41023.4 8.2 8.2
2016-Dec-02 14:00N 48°24' W 123°24'0 0.0 100 / 21023.6 8.2 8.1
2016-Dec-02 13:00N 48°24' W 123°24'0 0.0 100 / 51023.3 7.9 7.8
2016-Dec-02 12:00N 48°24' W 123°24'0 0.0 120 / 61024.1 8.0 7.9
2016-Dec-02 11:00N 48°24' W 123°24'0 0.0 110 / 71024.7 7.9 7.8
2016-Dec-02 10:00N 48°24' W 123°24'1 1.6 110 / 71025.1 7.8 7.7
2016-Dec-02 09:10N 48°25' W 123°23'1 7.8
2016-Dec-02 09:00N 48°24' W 123°24'1 1.8 120 / 71025.3 8.0 7.8
2016-Dec-02 08:16N 48°25' W 123°23'1 4.9
2016-Dec-02 08:00N 48°24' W 123°24'0 0.0 110 / 91025.6 7.9 7.8
2016-Dec-02 07:00N 48°24' W 123°24'1 1.6 110 / 81026.0 7.6 7.5
2016-Dec-02 06:10N 48°25' W 123°23'1 7.8
2016-Dec-02 06:00N 48°24' W 123°24'1 2.5 110 / 81025.7 7.6 7.5
2016-Dec-02 05:28N 48°25' W 123°23'1 2.8
2016-Dec-02 05:00N 48°24' W 123°24'1 2.5 110 / 61025.9 7.9 7.0
2016-Dec-02 04:28N 48°25' W 123°23'1 2.8
2016-Dec-02 04:00N 48°24' W 123°24'0 0.0 110 / 81026.2 7.9 6.6
2016-Dec-02 03:00N 48°24' W 123°24'0 0.0 110 / 61026.0 7.9 7.7
2016-Dec-02 02:00N 48°24' W 123°24'0 0.0 110 / 61026.2 8.2 7.2
2016-Dec-02 01:00N 48°24' W 123°24'0 0.0 100 / 51025.6 7.8 7.4
2016-Dec-02 00:00N 48°24' W 123°24'0 0.0 110 / 41025.5 8.0 7.8
2016-Dec-01 23:00N 48°24' W 123°24'0 0.0 140 / 21025.4 8.1 8.0
2016-Dec-01 22:00N 48°24' W 123°24'0 0.0 100 / 11025.1 7.7 7.6
2016-Dec-01 21:00N 48°24' W 123°24'0 0.0 040 / 11025.0 8.1 8.0
2016-Dec-01 20:00N 48°24' W 123°24'0 0.0 010 / 21024.8 7.2 7.0
2016-Dec-01 19:00N 48°24' W 123°24'0 0.0 360 / 41024.9 5.9 5.8
2016-Dec-01 18:00N 48°24' W 123°24'0 0.0 010 / 41024.4 5.2 5.1
2016-Dec-01 17:00N 48°24' W 123°24'0 0.0 010 / 31024.0 4.4 4.3
2016-Dec-01 16:00N 48°24' W 123°24'0 0.0 020 / 31023.6 2.4 2.3
2016-Dec-01 15:00N 48°24' W 123°24'0 0.0 030 / 41023.1 3.1 3.0
2016-Dec-01 14:00N 48°24' W 123°24'0 0.0 010 / 21022.3 2.6 2.4
2016-Dec-01 13:00N 48°24' W 123°24'0 0.0 010 / 31022.4 3.6 3.4
2016-Dec-01 12:00N 48°24' W 123°24'0 0.0 010 / 31022.3 3.2 3.1
2016-Dec-01 11:00N 48°24' W 123°24'0 0.0 010 / 41022.1 4.1 3.9
2016-Dec-01 10:00N 48°24' W 123°24'0 0.0 1021.7 4.8 4.6
2016-Dec-01 09:00N 48°24' W 123°24'0 0.0 020 / 21021.2 5.3 4.9
2016-Dec-01 08:00N 48°24' W 123°24'0 0.0 260 / 41020.6 8.4 3.5
2016-Dec-01 07:00N 48°24' W 123°24'0 0.0 330 / 41020.0 8.5 3.9
2016-Dec-01 06:00N 48°24' W 123°24'0 0.0 010 / 31019.4 9.0 4.1
2016-Dec-01 05:00N 48°24' W 123°24'0 0.0 280 / 41019.0 9.1 4.4
2016-Dec-01 04:00N 48°24' W 123°24'0 0.0 250 / 141018.2 9.8 6.1
2016-Dec-01 03:00N 48°24' W 123°24'0 0.0 260 / 201017.5 9.9 6.0
2016-Dec-01 01:00N 48°24' W 123°24'0 0.0 260 / 141016.4 10.3 7.4
2016-Dec-01 00:00N 48°24' W 123°24'0 0.0 260 / 161015.5 10.6 7.2
2016-Nov-30 23:00N 48°24' W 123°24'0 0.0 250 / 101014.9 11.0 7.6
2016-Nov-30 22:00N 48°24' W 123°24'0 0.0 320 / 51014.4 10.2 7.4
2016-Nov-30 21:00N 48°24' W 123°24'0 0.0 280 / 81013.1 10.8 7.7
2016-Nov-30 20:00N 48°24' W 123°24'0 0.0 260 / 191011.8 10.8 7.0
2016-Nov-30 19:00N 48°24' W 123°24'0 0.0 260 / 261010.7 10.5 7.2
2016-Nov-30 18:00N 48°24' W 123°24'0 0.0 250 / 251009.6 9.8 8.7
2016-Nov-30 17:00N 48°24' W 123°24'0 0.0 240 / 251008.5 9.2 9.1
2016-Nov-30 16:00N 48°24' W 123°24'0 0.0 220 / 311007.6 9.0 8.9
2016-Nov-30 15:00N 48°24' W 123°24'0 0.0 200 / 221007.4 9.5 7.9
2016-Nov-30 14:00N 48°24' W 123°24'0 0.0 180 / 161007.9 9.0 8.6
2016-Nov-30 13:00N 48°24' W 123°24'0 0.0 190 / 101007.4 9.1 8.7
2016-Nov-30 12:00N 48°24' W 123°24'0 0.0 150 / 81007.4 8.8 8.1
2016-Nov-30 11:00N 48°24' W 123°24'0 0.0 130 / 41007.9 8.7 8.4
2016-Nov-30 10:00N 48°24' W 123°24'0 0.0 110 / 31007.5 8.8 8.0
2016-Nov-30 09:00N 48°24' W 123°24'0 0.0 010 / 31007.4 8.9 8.8
2016-Nov-30 08:00N 48°24' W 123°24'0 0.0 140 / 41008.5 8.8 8.6
2016-Nov-30 07:00N 48°24' W 123°24'0 0.0 020 / 31008.2 8.3 8.2
2016-Nov-30 06:00N 48°24' W 123°24'0 0.0 340 / 91009.4 8.3 8.2
2016-Nov-29 16:00N 48°24' W 123°24'0 0.0 020 / 41021.1 7.7 7.6
2016-Nov-29 15:00N 48°24' W 123°24'0 0.0 290 / 61021.1 7.2 7.1
2016-Nov-29 14:00N 48°24' W 123°24'0 0.0 010 / 41021.4 6.9 6.8
2016-Nov-29 13:00N 48°24' W 123°24'0 0.0 360 / 31021.2 7.1 7.0
2016-Nov-29 12:00N 48°24' W 123°24'0 0.0 030 / 41021.2 7.3 7.1
2016-Nov-29 11:00N 48°24' W 123°24'0 0.0 020 / 31021.4 7.0 6.9
2016-Nov-29 10:00N 48°24' W 123°24'0 0.0 010 / 31021.3 7.0 6.9
2016-Nov-29 09:00N 48°24' W 123°24'0 0.0 040 / 41020.8 7.0 6.9
2016-Nov-29 08:00N 48°24' W 123°24'0 0.0 360 / 31020.2 7.4 7.3
2016-Nov-29 07:00N 48°24' W 123°24'0 0.0 020 / 21020.0 7.2 7.1
2016-Nov-29 06:00N 48°24' W 123°24'0 0.0 360 / 31019.3 7.1 7.0
2016-Nov-29 05:00N 48°24' W 123°24'0 0.0 020 / 31019.0 7.2 7.1
2016-Nov-29 04:00N 48°24' W 123°24'0 0.0 350 / 41018.1 6.9 6.8
2016-Nov-29 03:00N 48°24' W 123°24'0 0.0 360 / 81017.6 7.9 7.7
2016-Nov-29 02:00N 48°24' W 123°24'0 0.0 010 / 41016.6 8.3 8.1
2016-Nov-29 01:00N 48°24' W 123°24'0 0.0 010 / 41015.9 9.2 7.2
2016-Nov-29 00:00N 48°24' W 123°24'0 0.0 020 / 41015.0 11.2 6.3
2016-Nov-28 23:00N 48°24' W 123°24'0 0.0 020 / 41013.9 12.5 6.3
2016-Nov-28 22:00N 48°24' W 123°24'0 0.0 030 / 41013.2 12.7 6.8
2016-Nov-28 21:00N 48°24' W 123°24'0 0.0 030 / 31012.8 13.4 7.6
2016-Nov-28 20:00N 48°24' W 123°24'0 0.0 060 / 31012.6 11.3 6.9
2016-Nov-28 19:00N 48°24' W 123°24'0 0.0 020 / 41012.2 9.7 7.0
2016-Nov-28 18:00N 48°24' W 123°24'0 0.0 020 / 31011.4 7.2 6.6
2016-Nov-28 17:00N 48°24' W 123°24'0 0.0 010 / 41010.4 5.7 5.6
2016-Nov-28 16:00N 48°24' W 123°24'0 0.0 010 / 51009.3 5.7 5.4
2016-Nov-28 15:00N 48°24' W 123°24'1 2.5 310 / 41008.3 8.6 6.2
2016-Nov-28 14:28N 48°25' W 123°23'1 2.8
2016-Nov-28 14:00N 48°24' W 123°24'0 0.0 250 / 151007.0 9.0 7.1
2016-Nov-28 13:00N 48°24' W 123°24'1 1.8 260 / 171006.2 9.2 6.9
2016-Nov-28 12:16N 48°25' W 123°23'1 4.9
2016-Nov-28 12:00N 48°24' W 123°24'1 1.4 260 / 131005.4 8.6 5.9
2016-Nov-28 11:04N 48°25' W 123°23'119.2
2016-Nov-28 11:00N 48°24' W 123°24'1 1.6 270 / 121004.6 8.0 5.0
2016-Nov-28 10:10N 48°25' W 123°23'1 7.8
2016-Nov-28 10:00N 48°24' W 123°24'1 2.1 270 / 81004.0 6.4 5.4
2016-Nov-28 09:22N 48°25' W 123°23'1 3.5
2016-Nov-28 09:00N 48°24' W 123°24'0 0.0 020 / 41003.0 5.8 5.6
2016-Nov-28 08:00N 48°24' W 123°24'0 0.0 020 / 11001.9 6.5 6.2
2016-Nov-28 07:00N 48°24' W 123°24'0 0.0 330 / 51000.3 7.4 5.8
2016-Nov-28 06:00N 48°24' W 123°24'0 0.0 270 / 12998.8 8.6 6.6
2016-Nov-28 05:00N 48°24' W 123°24'0 0.0 270 / 12997.3 9.1 7.1
2016-Nov-28 04:00N 48°24' W 123°24'0 0.0 250 / 15996.7 8.4 8.2
2016-Nov-28 03:00N 48°24' W 123°24'0 0.0 210 / 7997.1 7.8 7.6
2016-Nov-28 02:00N 48°24' W 123°24'0 0.0 210 / 6997.3 8.5 8.3
2016-Nov-28 01:00N 48°24' W 123°24'0 0.0 120 / 3997.4 7.7 7.6
2016-Nov-28 00:00N 48°24' W 123°24'   090 / 5999.8 7.6 7.4

Dump ship's entire track history